This is the latest recevied weather packets stored in our database for station/object 5B4ALR-13. If no packets are shown the sender has not sent any weather packets the latest 1 day(s).
| Time | Temp. | Humidity | Pressure | Rain* | Wind** | Luminosity | Snow |
|---|---|---|---|---|---|---|---|
| 1777980667 | 20.56° C | 45% | 1013.2 hPa | 0 mm | 0 m/s | - | - |
| 1777980066 | 20.56° C | 45% | 1013.2 hPa | 0 mm | 0.45 m/s, 270° | - | - |
| 1777979467 | 20° C | 48% | 1013.1 hPa | 0 mm | 0.89 m/s, 180° | - | - |
| 1777978867 | 20° C | 47% | 1013.2 hPa | 0 mm | 0.45 m/s, 180° | - | - |
| 1777978266 | 19.44° C | 48% | 1013 hPa | 0 mm | 0 m/s | - | - |
| 1777977666 | 18.89° C | 50% | 1013.1 hPa | 0 mm | 0.45 m/s, 180° | - | - |
| 1777977067 | 18.89° C | 50% | 1012.9 hPa | 0 mm | 1.34 m/s, 180° | - | - |
| 1777976466 | 18.89° C | 51% | 1012.9 hPa | 0 mm | 0.89 m/s, 180° | - | - |
| 1777975866 | 18.89° C | 50% | 1012.9 hPa | 0 mm | 0.89 m/s, 180° | - | - |
| 1777975266 | 20° C | 48% | 1012.9 hPa | 0 mm | 0.45 m/s, 225° | - | - |
| 1777974666 | 21.11° C | 43% | 1012.7 hPa | 0 mm | 0 m/s | - | - |
| 1777974066 | 21.67° C | 37% | 1012.7 hPa | 0 mm | 0 m/s | - | - |
| 1777973466 | 21.67° C | 36% | 1012.6 hPa | 0 mm | 0 m/s | - | - |
| 1777972867 | 22.22° C | 35% | 1012.5 hPa | 0 mm | 0 m/s | - | - |
| 1777972266 | 21.11° C | 36% | 1012.5 hPa | 0 mm | 0 m/s | - | - |
| 1777971666 | 21.11° C | 36% | 1012.6 hPa | 0 mm | 0 m/s | - | - |
| 1777971066 | 21.11° C | 37% | 1012.6 hPa | 0 mm | 0 m/s | - | - |
| 1777970466 | 20.56° C | 38% | 1012.6 hPa | 0 mm | 0 m/s | - | - |
| 1777969866 | 20.56° C | 40% | 1012.5 hPa | 0 mm | 0.45 m/s, 67° | - | - |
| 1777969266 | 20° C | 41% | 1012.5 hPa | 0 mm | 0 m/s | - | - |
| 1777968666 | 20.56° C | 40% | 1012.4 hPa | 0 mm | 0.45 m/s, 0° | - | - |
* Rain latest hour (hover to see other rain measurements)
** Current wind speed in m/s (hover to see current wind gust speed)